sensor_id;sensor_type;location;lat;lon;timestamp;pressure;altitude;pressure_sealevel;temperature;humidity
37634;BME280;32048;49.902;22.508;2022-12-07T00:01:15;98231.66;;;0.99;100.00
37634;BME280;32048;49.902;22.508;2022-12-07T00:03:43;98220.38;;;0.98;100.00
37634;BME280;32048;49.902;22.508;2022-12-07T00:06:13;98223.78;;;1.00;100.00
37634;BME280;32048;49.902;22.508;2022-12-07T00:08:40;98218.66;;;0.97;100.00
37634;BME280;32048;49.902;22.508;2022-12-07T00:11:10;98222.97;;;0.98;100.00
37634;BME280;32048;49.902;22.508;2022-12-07T00:13:38;98220.41;;;0.97;100.00
37634;BME280;32048;49.902;22.508;2022-12-07T00:16:17;98228.22;;;0.97;100.00
37634;BME280;32048;49.902;22.508;2022-12-07T00:18:45;98227.31;;;0.98;100.00
37634;BME280;32048;49.902;22.508;2022-12-07T00:21:15;98236.88;;;0.96;100.00
37634;BME280;32048;49.902;22.508;2022-12-07T00:23:44;98228.22;;;0.97;100.00
37634;BME280;32048;49.902;22.508;2022-12-07T00:28:40;98230.75;;;1.00;100.00
37634;BME280;32048;49.902;22.508;2022-12-07T00:31:10;98237.72;;;0.98;100.00
37634;BME280;32048;49.902;22.508;2022-12-07T00:33:37;98235.97;;;0.98;100.00
37634;BME280;32048;49.902;22.508;2022-12-07T00:36:08;98231.66;;;0.99;100.00
37634;BME280;32048;49.902;22.508;2022-12-07T00:38:36;98242.88;;;0.99;100.00
37634;BME280;32048;49.902;22.508;2022-12-07T00:41:11;98242.91;;;0.98;100.00
37634;BME280;32048;49.902;22.508;2022-12-07T00:43:40;98242.94;;;0.96;100.00
37634;BME280;32048;49.902;22.508;2022-12-07T00:46:07;98244.69;;;0.96;100.00
37634;BME280;32048;49.902;22.508;2022-12-07T00:48:35;98244.75;;;0.94;100.00
37634;BME280;32048;49.902;22.508;2022-12-07T00:51:03;98240.38;;;0.95;100.00
37634;BME280;32048;49.902;22.508;2022-12-07T00:53:30;98235.13;;;0.98;100.00
37634;BME280;32048;49.902;22.508;2022-12-07T00:56:06;98242.91;;;0.98;100.00
37634;BME280;32048;49.902;22.508;2022-12-07T00:58:33;98236.88;;;0.97;100.00
37634;BME280;32048;49.902;22.508;2022-12-07T01:01:01;98240.28;;;0.99;100.00
37634;BME280;32048;49.902;22.508;2022-12-07T01:03:29;98240.25;;;1.01;100.00
37634;BME280;32048;49.902;22.508;2022-12-07T01:05:57;98235.91;;;1.01;100.00
37634;BME280;32048;49.902;22.508;2022-12-07T01:08:25;98234.13;;;1.03;100.00
37634;BME280;32048;49.902;22.508;2022-12-07T01:11:19;98229.88;;;1.01;100.00
37634;BME280;32048;49.902;22.508;2022-12-07T01:13:50;98232.38;;;1.04;100.00
37634;BME280;32048;49.902;22.508;2022-12-07T01:16:17;98235.06;;;1.01;100.00
37634;BME280;32048;49.902;22.508;2022-12-07T01:18:47;98229.88;;;0.99;100.00
37634;BME280;32048;49.902;22.508;2022-12-07T01:21:17;98230.75;;;0.98;100.00
37634;BME280;32048;49.902;22.508;2022-12-07T01:23:45;98220.38;;;0.98;100.00
37634;BME280;32048;49.902;22.508;2022-12-07T01:26:16;98217.75;;;1.00;100.00
37634;BME280;32048;49.902;22.508;2022-12-07T01:28:44;98216.81;;;1.02;100.00
37634;BME280;32048;49.902;22.508;2022-12-07T01:31:14;98210.75;;;1.03;100.00
37634;BME280;32048;49.902;22.508;2022-12-07T01:33:47;98215.97;;;1.02;100.00
37634;BME280;32048;49.902;22.508;2022-12-07T01:38:50;98215.06;;;1.03;100.00
37634;BME280;32048;49.902;22.508;2022-12-07T01:41:20;98217.72;;;1.01;100.00
37634;BME280;32048;49.902;22.508;2022-12-07T01:44:08;98211.69;;;0.99;100.00
37634;BME280;32048;49.902;22.508;2022-12-07T01:46:36;98212.56;;;0.98;100.00
37634;BME280;32048;49.902;22.508;2022-12-07T01:49:10;98216.81;;;1.02;100.00
37634;BME280;32048;49.902;22.508;2022-12-07T01:51:40;98215.03;;;1.04;100.00
37634;BME280;32048;49.902;22.508;2022-12-07T01:54:11;98204.56;;;1.08;100.00
37634;BME280;32048;49.902;22.508;2022-12-07T01:56:42;98207.09;;;1.11;100.00
37634;BME280;32048;49.902;22.508;2022-12-07T01:59:11;98199.28;;;1.12;100.00
37634;BME280;32048;49.902;22.508;2022-12-07T02:01:38;98197.56;;;1.10;100.00
37634;BME280;32048;49.902;22.508;2022-12-07T02:04:05;98202.75;;;1.11;100.00
37634;BME280;32048;49.902;22.508;2022-12-07T02:06:33;98200.16;;;1.11;100.00
37634;BME280;32048;49.902;22.508;2022-12-07T02:09:02;98188.00;;;1.12;100.00
37634;BME280;32048;49.902;22.508;2022-12-07T02:11:30;98201.88;;;1.12;100.00
37634;BME280;32048;49.902;22.508;2022-12-07T02:13:57;98202.66;;;1.14;100.00
37634;BME280;32048;49.902;22.508;2022-12-07T02:16:31;98206.91;;;1.18;100.00
37634;BME280;32048;49.902;22.508;2022-12-07T02:28:05;98203.50;;;1.16;100.00
37634;BME280;32048;49.902;22.508;2022-12-07T02:30:40;98190.50;;;1.16;100.00
37634;BME280;32048;49.902;22.508;2022-12-07T02:33:19;98197.41;;;1.19;100.00
37634;BME280;32048;49.902;22.508;2022-12-07T02:35:57;98193.91;;;1.18;100.00
37634;BME280;32048;49.902;22.508;2022-12-07T02:38:34;98193.09;;;1.16;100.00
37634;BME280;32048;49.902;22.508;2022-12-07T02:41:12;98203.50;;;1.16;100.00
37634;BME280;32048;49.902;22.508;2022-12-07T02:43:52;98202.59;;;1.19;100.00
37634;BME280;32048;49.902;22.508;2022-12-07T02:46:23;98193.03;;;1.19;100.00
37634;BME280;32048;49.902;22.508;2022-12-07T02:48:53;98191.31;;;1.18;100.00
37634;BME280;32048;49.902;22.508;2022-12-07T02:51:22;98192.97;;;1.21;100.00
37634;BME280;32048;49.902;22.508;2022-12-07T02:53:49;98193.81;;;1.23;100.00
37634;BME280;32048;49.902;22.508;2022-12-07T02:59:30;98191.19;;;1.23;100.00
37634;BME280;32048;49.902;22.508;2022-12-07T03:07:42;98195.53;;;1.24;100.00
37634;BME280;32048;49.902;22.508;2022-12-07T03:13:02;98196.28;;;1.29;100.00
37634;BME280;32048;49.902;22.508;2022-12-07T03:18:20;98208.34;;;1.32;100.00
37634;BME280;32048;49.902;22.508;2022-12-07T03:20:51;98207.53;;;1.30;100.00
37634;BME280;32048;49.902;22.508;2022-12-07T03:23:21;98200.66;;;1.27;100.00
37634;BME280;32048;49.902;22.508;2022-12-07T03:25:56;98198.97;;;1.24;100.00
37634;BME280;32048;49.902;22.508;2022-12-07T03:28:31;98195.56;;;1.22;100.00
37634;BME280;32048;49.902;22.508;2022-12-07T03:31:04;98187.72;;;1.24;100.00
37634;BME280;32048;49.902;22.508;2022-12-07T03:33:44;98192.13;;;1.20;100.00
37634;BME280;32048;49.902;22.508;2022-12-07T03:36:24;98193.88;;;1.20;100.00
37634;BME280;32048;49.902;22.508;2022-12-07T03:39:30;98185.25;;;1.18;100.00
37634;BME280;32048;49.902;22.508;2022-12-07T03:42:00;98188.72;;;1.18;100.00
37634;BME280;32048;49.902;22.508;2022-12-07T03:44:29;98187.00;;;1.19;100.00
37634;BME280;32048;49.902;22.508;2022-12-07T03:50:00;98179.19;;;1.19;100.00
37634;BME280;32048;49.902;22.508;2022-12-07T03:52:40;98171.34;;;1.20;100.00
37634;BME280;32048;49.902;22.508;2022-12-07T03:55:11;98175.66;;;1.21;100.00
37634;BME280;32048;49.902;22.508;2022-12-07T03:57:41;98178.19;;;1.23;100.00
37634;BME280;32048;49.902;22.508;2022-12-07T04:00:10;98175.59;;;1.23;100.00
37634;BME280;32048;49.902;22.508;2022-12-07T04:02:37;98172.97;;;1.24;100.00
37634;BME280;32048;49.902;22.508;2022-12-07T04:05:06;98172.06;;;1.25;100.00
37634;BME280;32048;49.902;22.508;2022-12-07T04:07:33;98172.03;;;1.27;100.00
37634;BME280;32048;49.902;22.508;2022-12-07T04:10:00;98175.47;;;1.29;100.00
37634;BME280;32048;49.902;22.508;2022-12-07T04:12:28;98169.31;;;1.32;100.00
37634;BME280;32048;49.902;22.508;2022-12-07T04:14:55;98178.88;;;1.31;100.00
37634;BME280;32048;49.902;22.508;2022-12-07T04:17:22;98183.25;;;1.29;100.00
37634;BME280;32048;49.902;22.508;2022-12-07T04:19:49;98177.19;;;1.30;100.00
37634;BME280;32048;49.902;22.508;2022-12-07T04:22:16;98174.59;;;1.30;100.00
37634;BME280;32048;49.902;22.508;2022-12-07T04:24:43;98176.31;;;1.30;100.00
37634;BME280;32048;49.902;22.508;2022-12-07T04:27:10;98170.28;;;1.28;100.00
37634;BME280;32048;49.902;22.508;2022-12-07T04:29:37;98163.38;;;1.27;100.00
37634;BME280;32048;49.902;22.508;2022-12-07T04:32:04;98163.31;;;1.30;100.00
37634;BME280;32048;49.902;22.508;2022-12-07T04:34:31;98167.63;;;1.31;100.00
37634;BME280;32048;49.902;22.508;2022-12-07T04:36:58;98163.31;;;1.30;100.00
37634;BME280;32048;49.902;22.508;2022-12-07T04:39:30;98159.00;;;1.29;100.00
37634;BME280;32048;49.902;22.508;2022-12-07T04:41:58;98159.88;;;1.28;100.00
37634;BME280;32048;49.902;22.508;2022-12-07T04:44:26;98157.34;;;1.26;100.00
37634;BME280;32048;49.902;22.508;2022-12-07T04:46:54;98156.53;;;1.24;100.00
37634;BME280;32048;49.902;22.508;2022-12-07T04:49:22;98154.84;;;1.21;100.00
37634;BME280;32048;49.902;22.508;2022-12-07T04:51:49;98147.91;;;1.20;100.00
37634;BME280;32048;49.902;22.508;2022-12-07T04:54:17;98147.97;;;1.19;100.00
37634;BME280;32048;49.902;22.508;2022-12-07T04:56:44;98144.44;;;1.21;100.00
37634;BME280;32048;49.902;22.508;2022-12-07T04:59:12;98142.72;;;1.20;100.00
37634;BME280;32048;49.902;22.508;2022-12-07T05:01:40;98142.78;;;1.19;100.00
37634;BME280;32048;49.902;22.508;2022-12-07T05:04:08;98136.75;;;1.17;100.00
37634;BME280;32048;49.902;22.508;2022-12-07T05:06:35;98141.09;;;1.16;100.00
37634;BME280;32048;49.902;22.508;2022-12-07T05:09:03;98139.34;;;1.17;100.00
37634;BME280;32048;49.902;22.508;2022-12-07T05:11:30;98142.84;;;1.16;100.00
37634;BME280;32048;49.902;22.508;2022-12-07T05:14:16;98141.97;;;1.17;100.00
37634;BME280;32048;49.902;22.508;2022-12-07T05:16:45;98144.50;;;1.18;100.00
37634;BME280;32048;49.902;22.508;2022-12-07T05:19:13;98138.47;;;1.16;100.00
37634;BME280;32048;49.902;22.508;2022-12-07T05:21:40;98143.56;;;1.21;100.00
37634;BME280;32048;49.902;22.508;2022-12-07T05:24:09;98137.53;;;1.20;100.00
37634;BME280;32048;49.902;22.508;2022-12-07T05:26:36;98139.31;;;1.18;100.00
37634;BME280;32048;49.902;22.508;2022-12-07T05:29:04;98138.44;;;1.19;100.00
37634;BME280;32048;49.902;22.508;2022-12-07T05:31:31;98137.53;;;1.20;100.00
37634;BME280;32048;49.902;22.508;2022-12-07T05:33:59;98136.56;;;1.24;100.00
37634;BME280;32048;49.902;22.508;2022-12-07T05:36:26;98143.47;;;1.25;100.00
37634;BME280;32048;49.902;22.508;2022-12-07T05:38:55;98149.53;;;1.26;100.00
37634;BME280;32048;49.902;22.508;2022-12-07T05:41:22;98142.56;;;1.28;100.00
37634;BME280;32048;49.902;22.508;2022-12-07T05:44:08;98147.75;;;1.28;100.00
37634;BME280;32048;49.902;22.508;2022-12-07T05:46:35;98144.28;;;1.28;100.00
37634;BME280;32048;49.902;22.508;2022-12-07T05:49:02;98145.97;;;1.30;100.00
37634;BME280;32048;49.902;22.508;2022-12-07T05:51:29;98135.59;;;1.29;100.00
37634;BME280;32048;49.902;22.508;2022-12-07T05:53:56;98133.94;;;1.26;100.00
37634;BME280;32048;49.902;22.508;2022-12-07T05:56:23;98133.88;;;1.28;100.00
37634;BME280;32048;49.902;22.508;2022-12-07T05:58:51;98134.78;;;1.27;100.00
37634;BME280;32048;49.902;22.508;2022-12-07T06:01:36;98131.34;;;1.26;100.00
37634;BME280;32048;49.902;22.508;2022-12-07T06:04:03;98128.66;;;1.28;100.00
37634;BME280;32048;49.902;22.508;2022-12-07T06:06:30;98129.56;;;1.28;100.00
37634;BME280;32048;49.902;22.508;2022-12-07T06:08:57;98127.78;;;1.29;100.00
37634;BME280;32048;49.902;22.508;2022-12-07T06:11:24;98132.06;;;1.31;100.00
37634;BME280;32048;49.902;22.508;2022-12-07T06:14:10;98124.16;;;1.36;100.00
37634;BME280;32048;49.902;22.508;2022-12-07T06:16:36;98130.13;;;1.39;100.00
37634;BME280;32048;49.902;22.508;2022-12-07T06:19:04;98124.03;;;1.40;100.00
37634;BME280;32048;49.902;22.508;2022-12-07T06:21:31;98117.06;;;1.41;100.00
37634;BME280;32048;49.902;22.508;2022-12-07T06:23:58;98140.47;;;1.41;100.00
37634;BME280;32048;49.902;22.508;2022-12-07T06:26:25;98135.22;;;1.44;100.00
37634;BME280;32048;49.902;22.508;2022-12-07T06:28:52;98136.09;;;1.43;100.00
37634;BME280;32048;49.902;22.508;2022-12-07T06:31:19;98124.81;;;1.44;100.00
37634;BME280;32048;49.902;22.508;2022-12-07T06:33:46;98126.50;;;1.45;100.00
37634;BME280;32048;49.902;22.508;2022-12-07T06:36:13;98129.06;;;1.48;100.00
37634;BME280;32048;49.902;22.508;2022-12-07T06:38:40;98143.75;;;1.49;100.00
37634;BME280;32048;49.902;22.508;2022-12-07T06:41:07;98134.25;;;1.48;100.00
37634;BME280;32048;49.902;22.508;2022-12-07T06:43:34;98135.97;;;1.48;100.00
37634;BME280;32048;49.902;22.508;2022-12-07T06:46:03;98144.66;;;1.48;100.00
37634;BME280;32048;49.902;22.508;2022-12-07T06:48:30;98141.25;;;1.46;100.00
37634;BME280;32048;49.902;22.508;2022-12-07T06:50:57;98142.81;;;1.52;100.00
37634;BME280;32048;49.902;22.508;2022-12-07T06:53:24;98140.25;;;1.50;100.00
37634;BME280;32048;49.902;22.508;2022-12-07T06:55:51;98146.31;;;1.51;100.00
37634;BME280;32048;49.902;22.508;2022-12-07T06:58:18;98136.78;;;1.50;100.00
37634;BME280;32048;49.902;22.508;2022-12-07T07:00:48;98148.94;;;1.51;100.00
37634;BME280;32048;49.902;22.508;2022-12-07T07:03:16;98137.59;;;1.53;100.00
37634;BME280;32048;49.902;22.508;2022-12-07T07:05:43;98134.88;;;1.56;100.00
37634;BME280;32048;49.902;22.508;2022-12-07T07:08:12;98138.31;;;1.58;100.00
37634;BME280;32048;49.902;22.508;2022-12-07T07:10:48;98140.03;;;1.59;100.00
37634;BME280;32048;49.902;22.508;2022-12-07T07:13:15;98141.72;;;1.60;100.00
37634;BME280;32048;49.902;22.508;2022-12-07T07:15:42;98146.13;;;1.58;100.00
37634;BME280;32048;49.902;22.508;2022-12-07T07:18:09;98144.34;;;1.60;100.00
37634;BME280;32048;49.902;22.508;2022-12-07T07:20:36;98139.94;;;1.62;100.00
37634;BME280;32048;49.902;22.508;2022-12-07T07:23:04;98140.75;;;1.64;100.00
37634;BME280;32048;49.902;22.508;2022-12-07T07:25:31;98141.59;;;1.65;100.00
37634;BME280;32048;49.902;22.508;2022-12-07T07:27:58;98148.53;;;1.66;100.00
37634;BME280;32048;49.902;22.508;2022-12-07T07:30:26;98136.28;;;1.70;100.00
37634;BME280;32048;49.902;22.508;2022-12-07T07:32:57;98148.41;;;1.71;100.00
37634;BME280;32048;49.902;22.508;2022-12-07T07:35:26;98148.31;;;1.74;100.00
37634;BME280;32048;49.902;22.508;2022-12-07T07:37:53;98149.16;;;1.76;100.00
37634;BME280;32048;49.902;22.508;2022-12-07T07:40:20;98147.34;;;1.78;100.00
37634;BME280;32048;49.902;22.508;2022-12-07T07:42:49;98148.19;;;1.80;100.00
37634;BME280;32048;49.902;22.508;2022-12-07T07:45:17;98142.97;;;1.80;100.00
37634;BME280;32048;49.902;22.508;2022-12-07T07:47:44;98152.50;;;1.79;100.00
37634;BME280;32048;49.902;22.508;2022-12-07T07:50:11;98142.91;;;1.81;100.00
37634;BME280;32048;49.902;22.508;2022-12-07T07:52:38;98152.44;;;1.82;100.00
37634;BME280;32048;49.902;22.508;2022-12-07T07:55:06;98150.66;;;1.84;100.00
37634;BME280;32048;49.902;22.508;2022-12-07T07:57:36;98148.91;;;1.85;100.00
37634;BME280;32048;49.902;22.508;2022-12-07T08:00:04;98147.97;;;1.87;100.00
37634;BME280;32048;49.902;22.508;2022-12-07T08:02:32;98143.53;;;1.91;100.00
37634;BME280;32048;49.902;22.508;2022-12-07T08:04:59;98138.31;;;1.91;100.00
37634;BME280;32048;49.902;22.508;2022-12-07T08:07:27;98146.06;;;1.93;100.00
37634;BME280;32048;49.902;22.508;2022-12-07T08:09:54;98155.56;;;1.95;100.00
37634;BME280;32048;49.902;22.508;2022-12-07T08:12:21;98152.09;;;1.95;100.00
37634;BME280;32048;49.902;22.508;2022-12-07T08:14:48;98151.16;;;1.97;100.00
37634;BME280;32048;49.902;22.508;2022-12-07T08:17:15;98145.03;;;2.00;100.00
37634;BME280;32048;49.902;22.508;2022-12-07T08:19:42;98146.75;;;1.99;100.00
37634;BME280;32048;49.902;22.508;2022-12-07T08:22:09;98148.53;;;1.99;100.00
37634;BME280;32048;49.902;22.508;2022-12-07T08:24:36;98152.84;;;2.00;100.00
37634;BME280;32048;49.902;22.508;2022-12-07T08:27:03;98149.31;;;2.02;100.00
37634;BME280;32048;49.902;22.508;2022-12-07T08:29:30;98149.25;;;2.04;100.00
37634;BME280;32048;49.902;22.508;2022-12-07T08:31:57;98150.00;;;2.09;100.00
37634;BME280;32048;49.902;22.508;2022-12-07T08:34:24;98157.69;;;2.14;100.00
37634;BME280;32048;49.902;22.508;2022-12-07T08:36:51;98159.47;;;2.12;100.00
37634;BME280;32048;49.902;22.508;2022-12-07T08:39:18;98154.13;;;2.16;100.00
37634;BME280;32048;49.902;22.508;2022-12-07T08:42:00;98153.19;;;2.19;100.00
37634;BME280;32048;49.902;22.508;2022-12-07T08:44:27;98161.91;;;2.18;100.00
37634;BME280;32048;49.902;22.508;2022-12-07T08:46:58;98159.19;;;2.22;100.00
37634;BME280;32048;49.902;22.508;2022-12-07T08:49:31;98167.06;;;2.19;100.00
37634;BME280;32048;49.902;22.508;2022-12-07T08:52:01;98159.19;;;2.22;100.00
37634;BME280;32048;49.902;22.508;2022-12-07T08:54:30;98163.50;;;2.22;100.00
37634;BME280;32048;49.902;22.508;2022-12-07T08:57:00;98168.78;;;2.20;100.00
37634;BME280;32048;49.902;22.508;2022-12-07T08:59:28;98174.84;;;2.21;100.00
37634;BME280;32048;49.902;22.508;2022-12-07T09:01:55;98165.34;;;2.18;100.00
37634;BME280;32048;49.902;22.508;2022-12-07T09:04:22;98165.38;;;2.17;100.00
37634;BME280;32048;49.902;22.508;2022-12-07T09:06:50;98166.22;;;2.19;100.00
37634;BME280;32048;49.902;22.508;2022-12-07T09:09:17;98167.13;;;2.18;100.00
37634;BME280;32048;49.902;22.508;2022-12-07T09:11:44;98162.81;;;2.15;100.00
37634;BME280;32048;49.902;22.508;2022-12-07T09:14:12;98164.63;;;2.13;100.00
37634;BME280;32048;49.902;22.508;2022-12-07T09:16:39;98171.56;;;2.13;100.00
37634;BME280;32048;49.902;22.508;2022-12-07T09:19:07;98167.31;;;2.10;100.00
37634;BME280;32048;49.902;22.508;2022-12-07T09:21:34;98169.97;;;2.08;100.00
37634;BME280;32048;49.902;22.508;2022-12-07T09:24:01;98166.50;;;2.08;100.00
37634;BME280;32048;49.902;22.508;2022-12-07T09:26:28;98177.72;;;2.10;100.00
37634;BME280;32048;49.902;22.508;2022-12-07T09:28:55;98169.91;;;2.10;100.00
37634;BME280;32048;49.902;22.508;2022-12-07T09:31:22;98171.66;;;2.10;100.00
37634;BME280;32048;49.902;22.508;2022-12-07T09:33:58;98169.97;;;2.08;100.00
37634;BME280;32048;49.902;22.508;2022-12-07T09:36:27;98162.88;;;2.14;100.00
37634;BME280;32048;49.902;22.508;2022-12-07T09:38:54;98167.28;;;2.12;100.00
37634;BME280;32048;49.902;22.508;2022-12-07T09:41:23;98165.53;;;2.12;100.00
37634;BME280;32048;49.902;22.508;2022-12-07T09:43:51;98167.25;;;2.13;100.00
37634;BME280;32048;49.902;22.508;2022-12-07T09:46:19;98166.38;;;2.13;100.00
37634;BME280;32048;49.902;22.508;2022-12-07T09:48:48;98169.78;;;2.15;100.00
37634;BME280;32048;49.902;22.508;2022-12-07T09:51:22;98168.22;;;2.09;100.00
37634;BME280;32048;49.902;22.508;2022-12-07T09:53:53;98163.88;;;2.08;100.00
37634;BME280;32048;49.902;22.508;2022-12-07T09:56:21;98163.03;;;2.07;100.00
37634;BME280;32048;49.902;22.508;2022-12-07T09:58:49;98166.56;;;2.06;100.00
37634;BME280;32048;49.902;22.508;2022-12-07T10:01:19;98156.91;;;2.10;100.00
37634;BME280;32048;49.902;22.508;2022-12-07T10:03:53;98154.28;;;2.10;100.00
37634;BME280;32048;49.902;22.508;2022-12-07T10:06:21;98150.84;;;2.10;100.00
37634;BME280;32048;49.902;22.508;2022-12-07T10:08:48;98158.56;;;2.13;100.00
37634;BME280;32048;49.902;22.508;2022-12-07T10:11:15;98155.06;;;2.14;100.00
37634;BME280;32048;49.902;22.508;2022-12-07T10:13:43;98154.09;;;2.18;100.00
37634;BME280;32048;49.902;22.508;2022-12-07T10:18:55;98154.03;;;2.19;100.00
37634;BME280;32048;49.902;22.508;2022-12-07T10:21:24;98152.25;;;2.21;100.00
37634;BME280;32048;49.902;22.508;2022-12-07T10:24:08;98158.34;;;2.20;100.00
37634;BME280;32048;49.902;22.508;2022-12-07T10:26:52;98155.78;;;2.19;100.00
37634;BME280;32048;49.902;22.508;2022-12-07T10:29:33;98156.59;;;2.21;100.00
37634;BME280;32048;49.902;22.508;2022-12-07T10:34:40;98156.63;;;2.19;100.00
37634;BME280;32048;49.902;22.508;2022-12-07T10:39:51;98149.69;;;2.20;100.00
37634;BME280;32048;49.902;22.508;2022-12-07T10:42:24;98144.34;;;2.24;100.00
37634;BME280;32048;49.902;22.508;2022-12-07T10:45:14;98137.34;;;2.26;100.00
37634;BME280;32048;49.902;22.508;2022-12-07T10:50:43;98142.28;;;2.36;100.00
37634;BME280;32048;49.902;22.508;2022-12-07T10:56:34;98144.69;;;2.42;100.00
37634;BME280;32048;49.902;22.508;2022-12-07T10:59:19;98147.31;;;2.42;100.00
37634;BME280;32048;49.902;22.508;2022-12-07T11:02:00;98135.03;;;2.47;100.00
37634;BME280;32048;49.902;22.508;2022-12-07T11:10:49;98147.94;;;2.50;100.00
37634;BME280;32048;49.902;22.508;2022-12-07T11:21:38;98142.69;;;2.52;100.00
37634;BME280;32048;49.902;22.508;2022-12-07T11:25:18;98138.16;;;2.58;100.00
37634;BME280;32048;49.902;22.508;2022-12-07T11:27:41;98139.84;;;2.59;100.00
37634;BME280;32048;49.902;22.508;2022-12-07T11:30:19;98139.03;;;2.57;100.00
37634;BME280;32048;49.902;22.508;2022-12-07T11:33:08;98134.66;;;2.59;100.00
37634;BME280;32048;49.902;22.508;2022-12-07T11:36:09;98137.03;;;2.67;100.00
37634;BME280;32048;49.902;22.508;2022-12-07T11:38:51;98135.97;;;2.73;100.00
37634;BME280;32048;49.902;22.508;2022-12-07T11:41:25;98149.06;;;2.71;100.00
37634;BME280;32048;49.902;22.508;2022-12-07T11:47:27;98138.03;;;2.63;100.00
37634;BME280;32048;49.902;22.508;2022-12-07T11:50:27;98131.63;;;2.73;100.00
37634;BME280;32048;49.902;22.508;2022-12-07T11:55:56;98141.97;;;2.76;100.00
37634;BME280;32048;49.902;22.508;2022-12-07T12:03:55;98150.69;;;2.75;100.00
37634;BME280;32048;49.902;22.508;2022-12-07T12:06:23;98149.88;;;2.73;100.00
37634;BME280;32048;49.902;22.508;2022-12-07T12:17:50;98147.00;;;2.53;100.00
37634;BME280;32048;49.902;22.508;2022-12-07T12:20:31;98147.00;;;2.53;100.00
37634;BME280;32048;49.902;22.508;2022-12-07T12:25:53;98144.38;;;2.54;100.00
37634;BME280;32048;49.902;22.508;2022-12-07T12:28:48;98146.13;;;2.54;100.00
37634;BME280;32048;49.902;22.508;2022-12-07T12:33:49;98139.00;;;2.59;100.00
37634;BME280;32048;49.902;22.508;2022-12-07T12:59:39;98148.53;;;2.30;100.00
37634;BME280;32048;49.902;22.508;2022-12-07T13:02:23;98166.84;;;2.27;100.00
37634;BME280;32048;49.902;22.508;2022-12-07T13:04:59;98158.97;;;2.28;100.00
37634;BME280;32048;49.902;22.508;2022-12-07T13:15:49;98158.41;;;2.19;100.00
37634;BME280;32048;49.902;22.508;2022-12-07T13:34:03;98161.34;;;2.06;100.00
37634;BME280;32048;49.902;22.508;2022-12-07T13:36:38;98168.28;;;2.06;100.00
37634;BME280;32048;49.902;22.508;2022-12-07T13:41:42;98165.81;;;2.01;100.00
37634;BME280;32048;49.902;22.508;2022-12-07T13:44:12;98167.56;;;2.01;100.00
37634;BME280;32048;49.902;22.508;2022-12-07T13:49:24;98169.44;;;1.96;100.00
37634;BME280;32048;49.902;22.508;2022-12-07T13:51:53;98178.06;;;1.98;100.00
37634;BME280;32048;49.902;22.508;2022-12-07T13:54:21;98181.56;;;1.97;100.00
37634;BME280;32048;49.902;22.508;2022-12-07T13:56:51;98189.44;;;1.95;100.00
37634;BME280;32048;49.902;22.508;2022-12-07T13:59:24;98182.47;;;1.96;100.00
37634;BME280;32048;49.902;22.508;2022-12-07T14:01:53;98183.41;;;1.93;100.00
37634;BME280;32048;49.902;22.508;2022-12-07T14:04:35;98184.34;;;1.91;100.00
37634;BME280;32048;49.902;22.508;2022-12-07T14:07:27;98182.59;;;1.91;100.00
37634;BME280;32048;49.902;22.508;2022-12-07T14:10:04;98190.44;;;1.90;100.00
37634;BME280;32048;49.902;22.508;2022-12-07T14:12:49;98186.13;;;1.89;100.00
37634;BME280;32048;49.902;22.508;2022-12-07T14:15:27;98183.59;;;1.85;100.00
37634;BME280;32048;49.902;22.508;2022-12-07T14:17:56;98192.31;;;1.84;100.00
37634;BME280;32048;49.902;22.508;2022-12-07T14:20:34;98182.84;;;1.82;100.00
37634;BME280;32048;49.902;22.508;2022-12-07T14:23:02;98193.19;;;1.83;100.00
37634;BME280;32048;49.902;22.508;2022-12-07T14:25:50;98187.97;;;1.83;100.00
37634;BME280;32048;49.902;22.508;2022-12-07T14:28:29;98189.75;;;1.81;100.00
37634;BME280;32048;49.902;22.508;2022-12-07T14:30:58;98188.88;;;1.82;100.00
37634;BME280;32048;49.902;22.508;2022-12-07T14:33:26;98195.88;;;1.80;100.00
37634;BME280;32048;49.902;22.508;2022-12-07T14:35:53;98202.03;;;1.78;100.00
37634;BME280;32048;49.902;22.508;2022-12-07T14:38:25;98204.63;;;1.78;100.00
37634;BME280;32048;49.902;22.508;2022-12-07T14:40:53;98200.34;;;1.75;100.00
37634;BME280;32048;49.902;22.508;2022-12-07T14:43:21;98206.44;;;1.74;100.00
37634;BME280;32048;49.902;22.508;2022-12-07T14:45:48;98207.28;;;1.75;100.00
37634;BME280;32048;49.902;22.508;2022-12-07T14:48:18;98200.38;;;1.74;100.00
37634;BME280;32048;49.902;22.508;2022-12-07T14:51:08;98208.28;;;1.71;100.00
37634;BME280;32048;49.902;22.508;2022-12-07T14:53:59;98202.28;;;1.67;100.00
37634;BME280;32048;49.902;22.508;2022-12-07T14:56:26;98202.25;;;1.69;100.00
37634;BME280;32048;49.902;22.508;2022-12-07T14:58:54;98203.13;;;1.67;100.00
37634;BME280;32048;49.902;22.508;2022-12-07T15:01:21;98200.59;;;1.66;100.00
37634;BME280;32048;49.902;22.508;2022-12-07T15:03:48;98203.22;;;1.64;100.00
37634;BME280;32048;49.902;22.508;2022-12-07T15:06:17;98201.56;;;1.62;100.00
37634;BME280;32048;49.902;22.508;2022-12-07T15:08:45;98199.81;;;1.61;100.00
37634;BME280;32048;49.902;22.508;2022-12-07T15:11:17;98197.28;;;1.59;100.00
37634;BME280;32048;49.902;22.508;2022-12-07T15:13:45;98205.13;;;1.58;100.00
37634;BME280;32048;49.902;22.508;2022-12-07T15:16:30;98203.34;;;1.60;100.00
37634;BME280;32048;49.902;22.508;2022-12-07T15:19:22;98212.91;;;1.59;100.00
37634;BME280;32048;49.902;22.508;2022-12-07T15:21:54;98205.94;;;1.60;100.00
37634;BME280;32048;49.902;22.508;2022-12-07T15:24:23;98203.34;;;1.60;100.00
37634;BME280;32048;49.902;22.508;2022-12-07T15:26:50;98203.28;;;1.61;100.00
37634;BME280;32048;49.902;22.508;2022-12-07T15:29:18;98202.41;;;1.62;100.00